EZY21YC LIRN-LFKJ
Flight info
| Callsign | EZY21YC |
|---|---|
| Flight time | 0h 59m |
| Altitude | 34000 |
| Route | ALAXI DCT IBROS DCT ASKAG |
| Aircraft | B736/M-SDE2E3FGHIRWXY/LB1 |
Departure
| Time | 2026-04-28 08:39 |
|---|---|
| Airport | Naples International Airport (LIRN) |
Arrival
| Time | 2026-04-28 09:38 |
|---|---|
| Airport | Ajaccio Napoléon Bonaparte airport (LFKJ) |
| Time | Latitude | Longitude | Altitude | Speed | Heading |
|---|---|---|---|---|---|
| 2026-04-28 08:30 | 40.87839 | 14.28088 | 294 ft | 0 kts | 140° |
| 2026-04-28 08:30 | 40.87849 | 14.28077 | 298 ft | 2 kts | 140° |
| 2026-04-28 08:30 | 40.87862 | 14.28063 | 299 ft | 2 kts | 141° |
| 2026-04-28 08:31 | 40.87875 | 14.28050 | 297 ft | 2 kts | 139° |
| 2026-04-28 08:31 | 40.87885 | 14.28033 | 298 ft | 2 kts | 113° |
| 2026-04-28 08:31 | 40.87888 | 14.28012 | 295 ft | 2 kts | 75° |
| 2026-04-28 08:31 | 40.87885 | 14.28000 | 297 ft | 1 kts | 56° |
| 2026-04-28 08:32 | 40.87885 | 14.28001 | 297 ft | 1 kts | 56° |
| 2026-04-28 08:33 | 40.87899 | 14.28022 | 296 ft | 6 kts | 51° |
| 2026-04-28 08:33 | 40.87936 | 14.28082 | 294 ft | 11 kts | 51° |
| 2026-04-28 08:33 | 40.88010 | 14.28136 | 292 ft | 13 kts | 30° |
| 2026-04-28 08:33 | 40.88062 | 14.28229 | 291 ft | 13 kts | 64° |
| 2026-04-28 08:34 | 40.88060 | 14.28345 | 286 ft | 13 kts | 96° |
| 2026-04-28 08:34 | 40.88049 | 14.28470 | 284 ft | 14 kts | 97° |
| 2026-04-28 08:34 | 40.88046 | 14.28605 | 286 ft | 15 kts | 64° |
| 2026-04-28 08:34 | 40.88113 | 14.28723 | 280 ft | 17 kts | 52° |
| 2026-04-28 08:35 | 40.88187 | 14.28852 | 276 ft | 19 kts | 52° |
| 2026-04-28 08:35 | 40.88269 | 14.28993 | 273 ft | 20 kts | 52° |
| 2026-04-28 08:35 | 40.88357 | 14.29146 | 269 ft | 22 kts | 52° |
| 2026-04-28 08:35 | 40.88450 | 14.29308 | 265 ft | 23 kts | 52° |
| 2026-04-28 08:36 | 40.88551 | 14.29482 | 260 ft | 25 kts | 53° |
| 2026-04-28 08:36 | 40.88658 | 14.29667 | 255 ft | 26 kts | 53° |
| 2026-04-28 08:36 | 40.88772 | 14.29864 | 249 ft | 28 kts | 52° |
| 2026-04-28 08:36 | 40.88893 | 14.30074 | 241 ft | 30 kts | 52° |
| 2026-04-28 08:37 | 40.88967 | 14.30182 | 237 ft | 8 kts | 12° |
| 2026-04-28 08:37 | 40.89023 | 14.30149 | 237 ft | 10 kts | 328° |
| 2026-04-28 08:37 | 40.89074 | 14.30081 | 237 ft | 10 kts | 270° |
| 2026-04-28 08:37 | 40.89053 | 14.30027 | 239 ft | 21 kts | 239° |
| 2026-04-28 08:38 | 40.88864 | 14.29629 | 252 ft | 80 kts | 238° |
| 2026-04-28 08:38 | 40.88477 | 14.28810 | 274 ft | 127 kts | 238° |
| 2026-04-28 08:38 | 40.87967 | 14.27743 | 491 ft | 140 kts | 231° |
| 2026-04-28 08:38 | 40.87291 | 14.26793 | 861 ft | 147 kts | 220° |
| 2026-04-28 08:39 | 40.86460 | 14.25937 | 1257 ft | 153 kts | 217° |
| 2026-04-28 08:39 | 40.85530 | 14.25235 | 1788 ft | 160 kts | 188° |
| 2026-04-28 08:39 | 40.84443 | 14.25476 | 2393 ft | 159 kts | 162° |
| 2026-04-28 08:39 | 40.83397 | 14.25836 | 3072 ft | 157 kts | 169° |
| 2026-04-28 08:40 | 40.82316 | 14.26103 | 3637 ft | 164 kts | 170° |
| 2026-04-28 08:40 | 40.81206 | 14.26363 | 3886 ft | 187 kts | 170° |
| 2026-04-28 08:40 | 40.79895 | 14.26663 | 4475 ft | 193 kts | 170° |
| 2026-04-28 08:40 | 40.78566 | 14.26961 | 5202 ft | 194 kts | 170° |
| 2026-04-28 08:41 | 40.77229 | 14.27257 | 5888 ft | 195 kts | 171° |
| 2026-04-28 08:41 | 40.75878 | 14.27554 | 6553 ft | 197 kts | 171° |
| 2026-04-28 08:41 | 40.74515 | 14.27852 | 7177 ft | 200 kts | 171° |
| 2026-04-28 08:41 | 40.73139 | 14.28171 | 7791 ft | 203 kts | 165° |
| 2026-04-28 08:42 | 40.71955 | 14.29162 | 8374 ft | 207 kts | 128° |
| 2026-04-28 08:42 | 40.71417 | 14.30979 | 8693 ft | 229 kts | 91° |
| 2026-04-28 08:42 | 40.71669 | 14.33107 | 9191 ft | 241 kts | 78° |
| 2026-04-28 08:42 | 40.72024 | 14.35297 | 9982 ft | 246 kts | 79° |
| 2026-04-28 08:43 | 40.72367 | 14.37483 | 10796 ft | 248 kts | 79° |
| 2026-04-28 08:43 | 40.72764 | 14.39716 | 11560 ft | 253 kts | 68° |
| 2026-04-28 08:43 | 40.73795 | 14.41582 | 12330 ft | 256 kts | 36° |
| 2026-04-28 08:43 | 40.75442 | 14.42530 | 12878 ft | 270 kts | 5° |
| 2026-04-28 08:44 | 40.77398 | 14.42333 | 13123 ft | 296 kts | 348° |
| 2026-04-28 08:44 | 40.79512 | 14.41772 | 13344 ft | 324 kts | 347° |
| 2026-04-28 08:44 | 40.81811 | 14.41132 | 13554 ft | 350 kts | 347° |
| 2026-04-28 08:44 | 40.84260 | 14.40476 | 13990 ft | 366 kts | 348° |
| 2026-04-28 08:45 | 40.86786 | 14.39831 | 14674 ft | 372 kts | 348° |
| 2026-04-28 08:45 | 40.89343 | 14.39194 | 15499 ft | 374 kts | 348° |
| 2026-04-28 08:45 | 40.91901 | 14.38501 | 16324 ft | 376 kts | 342° |
| 2026-04-28 08:45 | 40.94243 | 14.36977 | 17069 ft | 378 kts | 322° |
| 2026-04-28 08:46 | 40.96293 | 14.34784 | 17884 ft | 380 kts | 319° |
| 2026-04-28 08:46 | 40.98313 | 14.32495 | 18620 ft | 384 kts | 318° |
| 2026-04-28 08:46 | 41.00343 | 14.30166 | 19249 ft | 389 kts | 318° |
| 2026-04-28 08:46 | 41.02379 | 14.27839 | 19880 ft | 393 kts | 319° |
| 2026-04-28 08:47 | 41.04470 | 14.25465 | 20529 ft | 397 kts | 319° |
| 2026-04-28 08:47 | 41.06586 | 14.23076 | 21171 ft | 401 kts | 319° |
| 2026-04-28 08:47 | 41.08725 | 14.20671 | 21799 ft | 406 kts | 319° |
| 2026-04-28 08:47 | 41.10890 | 14.18239 | 22415 ft | 410 kts | 319° |
| 2026-04-28 08:48 | 41.13075 | 14.15785 | 23023 ft | 414 kts | 319° |
| 2026-04-28 08:48 | 41.15291 | 14.13296 | 23644 ft | 418 kts | 320° |
| 2026-04-28 08:48 | 41.17522 | 14.10786 | 24169 ft | 422 kts | 320° |
| 2026-04-28 08:48 | 41.19770 | 14.08255 | 24697 ft | 425 kts | 320° |
| 2026-04-28 08:49 | 41.22001 | 14.05741 | 25233 ft | 428 kts | 320° |
| 2026-04-28 08:49 | 41.24277 | 14.03172 | 25756 ft | 431 kts | 320° |
| 2026-04-28 08:49 | 41.26567 | 14.00587 | 26268 ft | 434 kts | 320° |
| 2026-04-28 08:49 | 41.28878 | 13.97975 | 26760 ft | 437 kts | 320° |
| 2026-04-28 08:50 | 41.31147 | 13.95260 | 27240 ft | 440 kts | 316° |
| 2026-04-28 08:50 | 41.33295 | 13.92335 | 27714 ft | 443 kts | 313° |
| 2026-04-28 08:50 | 41.35392 | 13.89308 | 28191 ft | 446 kts | 312° |
| 2026-04-28 08:50 | 41.37486 | 13.86243 | 28634 ft | 449 kts | 312° |
| 2026-04-28 08:51 | 41.39600 | 13.83162 | 29066 ft | 452 kts | 313° |
| 2026-04-28 08:51 | 41.41743 | 13.80071 | 29521 ft | 455 kts | 313° |
| 2026-04-28 08:51 | 41.43902 | 13.76984 | 30072 ft | 455 kts | 313° |
| 2026-04-28 08:51 | 41.46063 | 13.73909 | 30653 ft | 452 kts | 313° |
| 2026-04-28 08:52 | 41.48179 | 13.70906 | 31230 ft | 449 kts | 313° |
| 2026-04-28 08:52 | 41.50317 | 13.67873 | 31733 ft | 448 kts | 313° |
| 2026-04-28 08:52 | 41.52450 | 13.64842 | 32192 ft | 448 kts | 313° |
| 2026-04-28 08:52 | 41.54579 | 13.61813 | 32675 ft | 447 kts | 313° |
| 2026-04-28 08:53 | 41.56700 | 13.58791 | 33172 ft | 445 kts | 313° |
| 2026-04-28 08:53 | 41.58818 | 13.55769 | 33661 ft | 444 kts | 313° |
| 2026-04-28 08:53 | 41.60925 | 13.52760 | 34075 ft | 444 kts | 313° |
| 2026-04-28 08:54 | 41.65145 | 13.46723 | 34097 ft | 441 kts | 313° |
| 2026-04-28 08:54 | 41.69291 | 13.40780 | 34106 ft | 434 kts | 313° |
| 2026-04-28 08:55 | 41.72916 | 13.34361 | 34115 ft | 435 kts | 293° |
| 2026-04-28 08:55 | 41.73707 | 13.30463 | 34098 ft | 436 kts | 276° |
| 2026-04-28 08:55 | 41.73909 | 13.26405 | 34109 ft | 437 kts | 273° |
| 2026-04-28 08:56 | 41.74103 | 13.18267 | 34092 ft | 438 kts | 272° |
| 2026-04-28 08:56 | 41.74277 | 13.10162 | 34096 ft | 439 kts | 272° |
| 2026-04-28 08:57 | 41.74493 | 13.01944 | 34090 ft | 439 kts | 272° |
| 2026-04-28 08:57 | 41.74726 | 12.93829 | 34090 ft | 439 kts | 273° |
| 2026-04-28 08:58 | 41.74961 | 12.85657 | 34094 ft | 439 kts | 273° |
| 2026-04-28 08:58 | 41.75191 | 12.77479 | 34099 ft | 439 kts | 272° |
| 2026-04-28 08:59 | 41.75414 | 12.69298 | 34102 ft | 439 kts | 272° |
| 2026-04-28 08:59 | 41.75630 | 12.61118 | 34098 ft | 439 kts | 272° |
| 2026-04-28 09:00 | 41.75841 | 12.52944 | 34101 ft | 438 kts | 272° |
| 2026-04-28 09:00 | 41.76045 | 12.44795 | 34077 ft | 438 kts | 272° |
| 2026-04-28 09:01 | 41.76242 | 12.36693 | 34100 ft | 437 kts | 272° |
| 2026-04-28 09:01 | 41.76434 | 12.28553 | 34102 ft | 437 kts | 272° |
| 2026-04-28 09:02 | 41.76621 | 12.20415 | 34106 ft | 437 kts | 272° |
| 2026-04-28 09:02 | 41.76802 | 12.12281 | 34101 ft | 436 kts | 272° |
| 2026-04-28 09:03 | 41.76977 | 12.04144 | 34098 ft | 436 kts | 272° |
| 2026-04-28 09:03 | 41.77145 | 11.96058 | 34086 ft | 436 kts | 272° |
| 2026-04-28 09:04 | 41.77308 | 11.87937 | 34132 ft | 436 kts | 272° |
| 2026-04-28 09:04 | 41.77466 | 11.79815 | 34114 ft | 436 kts | 272° |
| 2026-04-28 09:05 | 41.77618 | 11.71695 | 34083 ft | 436 kts | 272° |
| 2026-04-28 09:05 | 41.77764 | 11.63572 | 34084 ft | 436 kts | 272° |
| 2026-04-28 09:06 | 41.77903 | 11.55505 | 34085 ft | 436 kts | 272° |
| 2026-04-28 09:06 | 41.78038 | 11.47381 | 34091 ft | 435 kts | 272° |
| 2026-04-28 09:07 | 41.78165 | 11.39379 | 34081 ft | 424 kts | 272° |
| 2026-04-28 09:07 | 41.78285 | 11.31483 | 34090 ft | 424 kts | 272° |
| 2026-04-28 09:07 | 41.78343 | 11.27553 | 33683 ft | 425 kts | 272° |
| 2026-04-28 09:08 | 41.78399 | 11.23630 | 33221 ft | 419 kts | 272° |
| 2026-04-28 09:08 | 41.78453 | 11.19755 | 32768 ft | 413 kts | 272° |
| 2026-04-28 09:08 | 41.78505 | 11.15928 | 32280 ft | 409 kts | 272° |
| 2026-04-28 09:08 | 41.78555 | 11.12130 | 31808 ft | 405 kts | 272° |
| 2026-04-28 09:09 | 41.78604 | 11.08364 | 31344 ft | 402 kts | 272° |
| 2026-04-28 09:09 | 41.78652 | 11.04632 | 30887 ft | 399 kts | 272° |
| 2026-04-28 09:09 | 41.78698 | 11.00927 | 30438 ft | 397 kts | 272° |
| 2026-04-28 09:09 | 41.78742 | 10.97237 | 29948 ft | 394 kts | 272° |
| 2026-04-28 09:10 | 41.78785 | 10.93574 | 29442 ft | 391 kts | 272° |
| 2026-04-28 09:10 | 41.78826 | 10.89944 | 28959 ft | 387 kts | 272° |
| 2026-04-28 09:10 | 41.78866 | 10.86354 | 28487 ft | 384 kts | 272° |
| 2026-04-28 09:10 | 41.78904 | 10.82838 | 28026 ft | 380 kts | 271° |
| 2026-04-28 09:11 | 41.78941 | 10.79308 | 27578 ft | 377 kts | 271° |
| 2026-04-28 09:11 | 41.78977 | 10.75810 | 27134 ft | 374 kts | 271° |
| 2026-04-28 09:11 | 41.79011 | 10.72335 | 26693 ft | 372 kts | 271° |
| 2026-04-28 09:11 | 41.79044 | 10.68884 | 26259 ft | 369 kts | 271° |
| 2026-04-28 09:12 | 41.79076 | 10.65458 | 25830 ft | 367 kts | 271° |
| 2026-04-28 09:12 | 41.79107 | 10.62047 | 25411 ft | 365 kts | 271° |
| 2026-04-28 09:12 | 41.79136 | 10.58660 | 24978 ft | 363 kts | 271° |
| 2026-04-28 09:12 | 41.79165 | 10.55286 | 24557 ft | 361 kts | 271° |
| 2026-04-28 09:13 | 41.79192 | 10.51927 | 24126 ft | 360 kts | 271° |
| 2026-04-28 09:13 | 41.79218 | 10.48576 | 23704 ft | 359 kts | 271° |
| 2026-04-28 09:13 | 41.79235 | 10.46366 | 23370 ft | 358 kts | 271° |
| 2026-04-28 09:13 | 41.79260 | 10.43037 | 22917 ft | 356 kts | 271° |
| 2026-04-28 09:14 | 41.79283 | 10.39735 | 22478 ft | 353 kts | 271° |
| 2026-04-28 09:14 | 41.79305 | 10.36463 | 22062 ft | 350 kts | 271° |
| 2026-04-28 09:14 | 41.79326 | 10.33214 | 21655 ft | 347 kts | 271° |
| 2026-04-28 09:14 | 41.79346 | 10.29995 | 21252 ft | 344 kts | 271° |
| 2026-04-28 09:15 | 41.79365 | 10.26799 | 20847 ft | 342 kts | 271° |
| 2026-04-28 09:15 | 41.79383 | 10.23621 | 20448 ft | 339 kts | 270° |
| 2026-04-28 09:15 | 41.79400 | 10.20464 | 20051 ft | 337 kts | 270° |
| 2026-04-28 09:15 | 41.79416 | 10.17330 | 19655 ft | 335 kts | 270° |
| 2026-04-28 09:16 | 41.79431 | 10.14247 | 19267 ft | 333 kts | 270° |
| 2026-04-28 09:16 | 41.79446 | 10.11151 | 18876 ft | 332 kts | 270° |
| 2026-04-28 09:16 | 41.79459 | 10.08065 | 18479 ft | 330 kts | 270° |
| 2026-04-28 09:16 | 41.79472 | 10.04994 | 18034 ft | 329 kts | 270° |
| 2026-04-28 09:17 | 41.79453 | 10.01928 | 17594 ft | 328 kts | 269° |
| 2026-04-28 09:17 | 41.79408 | 9.98882 | 17177 ft | 325 kts | 269° |
| 2026-04-28 09:17 | 41.79358 | 9.95862 | 16787 ft | 323 kts | 269° |
| 2026-04-28 09:17 | 41.79308 | 9.92866 | 16402 ft | 321 kts | 269° |
| 2026-04-28 09:18 | 41.79261 | 9.89892 | 16015 ft | 318 kts | 269° |
| 2026-04-28 09:18 | 41.79215 | 9.86939 | 15636 ft | 316 kts | 269° |
| 2026-04-28 09:18 | 41.79170 | 9.84002 | 15261 ft | 314 kts | 268° |
| 2026-04-28 09:18 | 41.79125 | 9.81086 | 14884 ft | 312 kts | 268° |
| 2026-04-28 09:19 | 41.79079 | 9.78181 | 14507 ft | 311 kts | 268° |
| 2026-04-28 09:19 | 41.79053 | 9.75296 | 14141 ft | 309 kts | 273° |
| 2026-04-28 09:19 | 41.79444 | 9.72544 | 14018 ft | 303 kts | 284° |
| 2026-04-28 09:19 | 41.80032 | 9.69766 | 13867 ft | 311 kts | 285° |
| 2026-04-28 09:20 | 41.80647 | 9.66992 | 13724 ft | 317 kts | 285° |
| 2026-04-28 09:20 | 41.81277 | 9.64152 | 13587 ft | 318 kts | 285° |
| 2026-04-28 09:20 | 41.81899 | 9.61314 | 13446 ft | 316 kts | 285° |
| 2026-04-28 09:20 | 41.82511 | 9.58490 | 13313 ft | 315 kts | 285° |
| 2026-04-28 09:21 | 41.83115 | 9.55676 | 13188 ft | 313 kts | 285° |
| 2026-04-28 09:21 | 41.83712 | 9.52872 | 13059 ft | 312 kts | 285° |
| 2026-04-28 09:21 | 41.84305 | 9.50073 | 12944 ft | 311 kts | 285° |
| 2026-04-28 09:21 | 41.84894 | 9.47286 | 12814 ft | 310 kts | 285° |
| 2026-04-28 09:22 | 41.85480 | 9.44503 | 12687 ft | 310 kts | 284° |
| 2026-04-28 09:22 | 41.86064 | 9.41727 | 12567 ft | 309 kts | 284° |
| 2026-04-28 09:22 | 41.86647 | 9.38950 | 12456 ft | 309 kts | 284° |
| 2026-04-28 09:22 | 41.87232 | 9.36166 | 12315 ft | 310 kts | 284° |
| 2026-04-28 09:23 | 41.87811 | 9.33385 | 12193 ft | 310 kts | 284° |
| 2026-04-28 09:23 | 41.88385 | 9.30631 | 12075 ft | 310 kts | 284° |
| 2026-04-28 09:23 | 41.88965 | 9.27848 | 11940 ft | 310 kts | 284° |
| 2026-04-28 09:23 | 41.89545 | 9.25064 | 11830 ft | 309 kts | 284° |
| 2026-04-28 09:24 | 41.90124 | 9.22282 | 11692 ft | 309 kts | 284° |
| 2026-04-28 09:24 | 41.90700 | 9.19510 | 11571 ft | 308 kts | 284° |
| 2026-04-28 09:24 | 41.91275 | 9.16743 | 11469 ft | 307 kts | 284° |
| 2026-04-28 09:24 | 41.91847 | 9.13981 | 11337 ft | 307 kts | 284° |
| 2026-04-28 09:25 | 41.92418 | 9.11218 | 11215 ft | 307 kts | 284° |
| 2026-04-28 09:25 | 41.92988 | 9.08458 | 11096 ft | 307 kts | 284° |
| 2026-04-28 09:25 | 41.93557 | 9.05693 | 10987 ft | 307 kts | 284° |
| 2026-04-28 09:25 | 41.94128 | 9.02915 | 10860 ft | 308 kts | 284° |
| 2026-04-28 09:26 | 41.94694 | 9.00176 | 10717 ft | 309 kts | 284° |
| 2026-04-28 09:26 | 41.95265 | 8.97397 | 10593 ft | 306 kts | 284° |
| 2026-04-28 09:26 | 41.95822 | 8.94689 | 10474 ft | 297 kts | 284° |
| 2026-04-28 09:26 | 41.96363 | 8.92052 | 10345 ft | 288 kts | 284° |
| 2026-04-28 09:27 | 41.97404 | 8.86959 | 10105 ft | 280 kts | 284° |
| 2026-04-28 09:27 | 41.97923 | 8.84416 | 9912 ft | 287 kts | 284° |
| 2026-04-28 09:27 | 41.98455 | 8.81797 | 9535 ft | 290 kts | 284° |
| 2026-04-28 09:28 | 41.98988 | 8.79183 | 9191 ft | 288 kts | 284° |
| 2026-04-28 09:28 | 41.99516 | 8.76588 | 8855 ft | 287 kts | 284° |
| 2026-04-28 09:28 | 42.00039 | 8.74011 | 8521 ft | 285 kts | 284° |
| 2026-04-28 09:28 | 42.00559 | 8.71451 | 8205 ft | 283 kts | 284° |
| 2026-04-28 09:29 | 42.01075 | 8.68903 | 7895 ft | 282 kts | 284° |
| 2026-04-28 09:29 | 42.01583 | 8.66395 | 7572 ft | 282 kts | 284° |
| 2026-04-28 09:29 | 42.02091 | 8.63851 | 7239 ft | 280 kts | 284° |
| 2026-04-28 09:29 | 42.02587 | 8.61322 | 6920 ft | 278 kts | 281° |
| 2026-04-28 09:30 | 42.02594 | 8.58764 | 6584 ft | 274 kts | 253° |
| 2026-04-28 09:30 | 42.01774 | 8.56494 | 6271 ft | 269 kts | 230° |
| 2026-04-28 09:30 | 42.00528 | 8.54644 | 5954 ft | 266 kts | 223° |
| 2026-04-28 09:30 | 41.98993 | 8.53322 | 5619 ft | 262 kts | 196° |
| 2026-04-28 09:31 | 41.97211 | 8.53121 | 5319 ft | 258 kts | 170° |
| 2026-04-28 09:31 | 41.95540 | 8.53962 | 4945 ft | 258 kts | 146° |
| 2026-04-28 09:31 | 41.94175 | 8.55511 | 4632 ft | 256 kts | 134° |
| 2026-04-28 09:31 | 41.93265 | 8.57537 | 4293 ft | 255 kts | 106° |
| 2026-04-28 09:32 | 41.93182 | 8.59890 | 4059 ft | 254 kts | 78° |
| 2026-04-28 09:32 | 41.93908 | 8.62056 | 3808 ft | 257 kts | 51° |
| 2026-04-28 09:32 | 41.95256 | 8.63513 | 3630 ft | 245 kts | 26° |
| 2026-04-28 09:32 | 41.96811 | 8.64251 | 3452 ft | 228 kts | 17° |
| 2026-04-28 09:33 | 41.98278 | 8.64872 | 3248 ft | 216 kts | 18° |
| 2026-04-28 09:33 | 41.99617 | 8.65635 | 3053 ft | 200 kts | 40° |
| 2026-04-28 09:33 | 42.00330 | 8.67055 | 2998 ft | 178 kts | 72° |
| 2026-04-28 09:33 | 42.00484 | 8.68648 | 2985 ft | 168 kts | 95° |
| 2026-04-28 09:34 | 42.00325 | 8.70147 | 2964 ft | 157 kts | 100° |
| 2026-04-28 09:34 | 42.00142 | 8.71564 | 2983 ft | 152 kts | 101° |
| 2026-04-28 09:34 | 41.99954 | 8.72984 | 3003 ft | 156 kts | 101° |
| 2026-04-28 09:34 | 41.99758 | 8.74443 | 2775 ft | 165 kts | 101° |
| 2026-04-28 09:35 | 41.99561 | 8.75932 | 2514 ft | 158 kts | 100° |
| 2026-04-28 09:35 | 41.99372 | 8.77368 | 2261 ft | 152 kts | 101° |
| 2026-04-28 09:35 | 41.99188 | 8.78789 | 2004 ft | 157 kts | 102° |
| 2026-04-28 09:35 | 41.99003 | 8.80213 | 1736 ft | 150 kts | 102° |
| 2026-04-28 09:36 | 41.98690 | 8.81451 | 1717 ft | 137 kts | 124° |
| 2026-04-28 09:36 | 41.97981 | 8.82406 | 1275 ft | 147 kts | 159° |
| 2026-04-28 09:36 | 41.97057 | 8.82694 | 1075 ft | 131 kts | 171° |
| 2026-04-28 09:36 | 41.96187 | 8.82653 | 857 ft | 125 kts | 202° |
| 2026-04-28 09:37 | 41.95406 | 8.82173 | 706 ft | 126 kts | 208° |
| 2026-04-28 09:37 | 41.94599 | 8.81617 | 556 ft | 136 kts | 207° |
| 2026-04-28 09:37 | 41.93733 | 8.81075 | 296 ft | 136 kts | 204° |
| 2026-04-28 09:37 | 41.92907 | 8.80580 | 41 ft | 122 kts | 206° |
| 2026-04-28 09:38 | 41.92214 | 8.80143 | 22 ft | 97 kts | 205° |
| 2026-04-28 09:38 | 41.91666 | 8.79790 | 22 ft | 78 kts | 205° |
| 2026-04-28 09:38 | 41.91356 | 8.79600 | 21 ft | 30 kts | 208° |
| 2026-04-28 09:38 | 41.91244 | 8.79500 | 21 ft | 16 kts | 253° |
| 2026-04-28 09:39 | 41.91303 | 8.79393 | 20 ft | 15 kts | 334° |
| 2026-04-28 09:39 | 41.91398 | 8.79338 | 20 ft | 15 kts | 346° |
| 2026-04-28 09:39 | 41.91495 | 8.79356 | 20 ft | 14 kts | 20° |
| 2026-04-28 09:39 | 41.91581 | 8.79409 | 20 ft | 13 kts | 25° |
| 2026-04-28 09:40 | 41.91664 | 8.79459 | 20 ft | 13 kts | 24° |
| 2026-04-28 09:40 | 41.91745 | 8.79508 | 20 ft | 12 kts | 24° |
| 2026-04-28 09:40 | 41.91822 | 8.79556 | 20 ft | 12 kts | 27° |
| 2026-04-28 09:40 | 41.91867 | 8.79580 | 20 ft | 3 kts | 358° |
| 2026-04-28 09:41 | 41.91881 | 8.79559 | 21 ft | 3 kts | 297° |
| 2026-04-28 09:41 | 41.91912 | 8.79538 | 20 ft | 1 kts | 345° |